createdAt,value
2022-11-28T00:00:39.367Z,19
2022-11-28T00:01:42.014Z,19
2022-11-28T00:02:44.940Z,20
2022-11-28T00:03:48.556Z,20
2022-11-28T00:04:52.156Z,20
2022-11-28T00:05:55.119Z,20
2022-11-28T00:06:57.872Z,20
2022-11-28T00:08:02.167Z,20
2022-11-28T00:09:04.923Z,20
2022-11-28T00:10:07.584Z,20
2022-11-28T00:11:10.386Z,21
2022-11-28T00:12:13.154Z,20
2022-11-28T00:13:15.814Z,19
2022-11-28T00:14:18.477Z,19
2022-11-28T00:15:21.128Z,17
2022-11-28T00:16:24.242Z,18
2022-11-28T00:17:27.110Z,17
2022-11-28T00:18:30.334Z,17
2022-11-28T00:19:32.934Z,17
2022-11-28T00:20:35.590Z,17
2022-11-28T00:21:38.257Z,17
2022-11-28T00:22:40.907Z,18
2022-11-28T00:23:43.629Z,17
2022-11-28T00:24:46.318Z,17
2022-11-28T00:25:48.913Z,18
2022-11-28T00:26:51.674Z,18
2022-11-28T00:27:54.590Z,19
2022-11-28T00:28:57.192Z,19
2022-11-28T00:29:59.837Z,19
2022-11-28T00:31:02.474Z,19
2022-11-28T00:32:05.469Z,18
2022-11-28T00:33:08.439Z,20
2022-11-28T00:34:11.304Z,23
2022-11-28T00:35:13.979Z,20
2022-11-28T00:36:16.588Z,20
2022-11-28T00:37:19.493Z,18
2022-11-28T00:38:22.362Z,19
2022-11-28T00:39:25.027Z,18
2022-11-28T00:40:27.649Z,21
2022-11-28T00:41:30.323Z,22
2022-11-28T00:42:33.057Z,22
2022-11-28T00:43:35.830Z,20
2022-11-28T00:44:38.447Z,18
2022-11-28T00:45:41.756Z,17
2022-11-28T00:46:44.492Z,17
2022-11-28T00:47:47.825Z,15
2022-11-28T00:48:50.444Z,16
2022-11-28T00:49:53.083Z,16
2022-11-28T00:50:55.661Z,17
2022-11-28T00:51:58.284Z,18
2022-11-28T00:53:00.904Z,18
2022-11-28T00:54:03.579Z,17
2022-11-28T00:55:06.222Z,17
2022-11-28T00:56:09.134Z,17
2022-11-28T00:57:11.763Z,17
2022-11-28T00:58:14.526Z,17
2022-11-28T00:59:18.312Z,16
2022-11-28T01:00:20.837Z,16
2022-11-28T01:01:23.744Z,16
2022-11-28T01:02:26.699Z,16
2022-11-28T01:03:29.872Z,17
2022-11-28T01:04:32.527Z,17
2022-11-28T01:05:35.150Z,18
2022-11-28T01:06:38.017Z,17
2022-11-28T01:07:40.752Z,17
2022-11-28T01:08:43.513Z,17
2022-11-28T01:09:46.738Z,17
2022-11-28T01:10:49.337Z,17
2022-11-28T01:11:51.994Z,17
2022-11-28T01:12:54.819Z,17
2022-11-28T01:13:57.553Z,17
2022-11-28T01:15:00.318Z,17
2022-11-28T01:16:03.159Z,17
2022-11-28T01:17:05.952Z,17
2022-11-28T01:18:08.605Z,17
2022-11-28T01:19:11.486Z,16
2022-11-28T01:20:14.139Z,16
2022-11-28T01:21:16.973Z,16
2022-11-28T01:22:19.572Z,14
2022-11-28T01:23:22.216Z,16
2022-11-28T01:24:25.097Z,15
2022-11-28T01:25:27.763Z,16
2022-11-28T01:26:30.417Z,16
2022-11-28T01:27:33.054Z,14
2022-11-28T01:28:35.680Z,14
2022-11-28T01:29:38.497Z,13
2022-11-28T01:30:41.202Z,12
2022-11-28T01:31:43.954Z,11
2022-11-28T01:32:46.807Z,11
2022-11-28T01:33:49.923Z,11
2022-11-28T01:34:53.055Z,10
2022-11-28T01:35:55.695Z,10
2022-11-28T01:36:58.351Z,11
2022-11-28T01:38:00.934Z,10
2022-11-28T01:39:03.621Z,10
2022-11-28T01:40:06.269Z,10
2022-11-28T01:41:08.887Z,10
2022-11-28T01:42:11.541Z,11
2022-11-28T01:43:14.163Z,11
2022-11-28T01:44:16.797Z,11
2022-11-28T01:45:19.550Z,10
2022-11-28T01:46:22.328Z,11
2022-11-28T01:47:25.062Z,13
2022-11-28T01:48:27.672Z,13
2022-11-28T01:49:30.324Z,11
2022-11-28T01:50:33.160Z,11
2022-11-28T01:51:36.049Z,10
2022-11-28T01:52:38.676Z,9
2022-11-28T01:53:42.119Z,10
2022-11-28T01:54:45.150Z,11
2022-11-28T01:55:47.781Z,10
2022-11-28T01:56:50.436Z,10
2022-11-28T01:57:53.095Z,10
2022-11-28T01:58:55.691Z,9
2022-11-28T01:59:58.342Z,10
2022-11-28T02:01:01.208Z,10
2022-11-28T02:02:04.418Z,8
2022-11-28T02:03:07.695Z,8
2022-11-28T02:04:10.325Z,9
2022-11-28T02:05:12.929Z,8
2022-11-28T02:06:15.784Z,9
2022-11-28T02:07:18.481Z,11
2022-11-28T02:08:21.250Z,10
2022-11-28T02:09:23.869Z,10
2022-11-28T02:10:26.496Z,10
2022-11-28T02:11:29.105Z,12
2022-11-28T02:12:31.758Z,13
2022-11-28T02:13:34.889Z,13
2022-11-28T02:14:37.518Z,13
2022-11-28T02:15:40.163Z,12
2022-11-28T02:16:43.206Z,13
2022-11-28T02:17:46.115Z,13
2022-11-28T02:18:50.885Z,13
2022-11-28T02:19:53.570Z,10
2022-11-28T02:20:56.174Z,13
2022-11-28T02:21:59.066Z,16
2022-11-28T02:23:01.694Z,16
2022-11-28T02:24:04.308Z,16
2022-11-28T02:25:06.990Z,14
2022-11-28T02:26:09.707Z,13
2022-11-28T02:27:12.336Z,11
2022-11-28T02:28:14.990Z,10
2022-11-28T02:29:17.857Z,10
2022-11-28T02:30:20.447Z,10
2022-11-28T02:31:23.203Z,11
2022-11-28T02:32:26.171Z,10
2022-11-28T02:33:28.910Z,10
2022-11-28T02:34:31.526Z,9
2022-11-28T02:35:34.156Z,9
2022-11-28T02:36:36.812Z,8
2022-11-28T02:37:39.668Z,9
2022-11-28T02:38:42.543Z,8
2022-11-28T02:39:45.172Z,9
2022-11-28T02:40:48.030Z,7
2022-11-28T02:41:50.685Z,8
2022-11-28T02:42:53.549Z,8
2022-11-28T02:44:04.125Z,8
2022-11-28T02:45:06.890Z,7
2022-11-28T02:46:09.533Z,8
2022-11-28T02:47:12.358Z,8
2022-11-28T02:48:15.496Z,8
2022-11-28T02:49:18.274Z,7
2022-11-28T02:50:20.933Z,8
2022-11-28T02:51:23.543Z,8
2022-11-28T02:52:26.180Z,8
2022-11-28T02:53:29.275Z,7
2022-11-28T02:54:31.952Z,7
2022-11-28T02:55:34.587Z,8
2022-11-28T02:56:37.221Z,8
2022-11-28T02:57:40.087Z,8
2022-11-28T02:58:42.739Z,7
2022-11-28T02:59:45.451Z,8
2022-11-28T03:00:48.426Z,8
2022-11-28T03:01:51.181Z,10
2022-11-28T03:02:53.915Z,10
2022-11-28T03:03:56.862Z,10
2022-11-28T03:04:59.611Z,10
2022-11-28T03:06:02.251Z,10
2022-11-28T03:07:04.914Z,10
2022-11-28T03:08:07.553Z,8
2022-11-28T03:09:10.441Z,11
2022-11-28T03:10:13.093Z,8
2022-11-28T03:11:15.684Z,9
2022-11-28T03:12:18.382Z,9
2022-11-28T03:13:21.018Z,9
2022-11-28T03:14:23.676Z,9
2022-11-28T03:15:26.309Z,8
2022-11-28T03:16:29.159Z,8
2022-11-28T03:17:32.105Z,10
2022-11-28T03:18:34.753Z,10
2022-11-28T03:19:37.511Z,8
2022-11-28T03:20:40.239Z,8
2022-11-28T03:21:42.869Z,9
2022-11-28T03:22:48.213Z,8
2022-11-28T03:23:50.681Z,7
2022-11-28T03:24:53.554Z,7
2022-11-28T03:25:56.162Z,8
2022-11-28T03:26:58.767Z,8
2022-11-28T03:28:01.420Z,8
2022-11-28T03:29:04.487Z,8
2022-11-28T03:30:07.124Z,10
2022-11-28T03:31:12.632Z,9
2022-11-28T03:32:15.262Z,10
2022-11-28T03:33:18.143Z,8
2022-11-28T03:34:20.818Z,8
2022-11-28T03:35:23.565Z,10
2022-11-28T03:36:27.223Z,7
2022-11-28T03:37:29.896Z,9
2022-11-28T03:38:32.565Z,8
2022-11-28T03:39:35.194Z,9
2022-11-28T03:40:38.066Z,10
2022-11-28T03:41:40.707Z,9
2022-11-28T03:42:43.325Z,8
2022-11-28T03:43:45.980Z,9
2022-11-28T03:44:48.626Z,9
2022-11-28T03:45:51.276Z,8
2022-11-28T03:46:53.996Z,9
2022-11-28T03:47:56.798Z,8
2022-11-28T03:48:59.448Z,10
2022-11-28T03:50:02.132Z,7
2022-11-28T03:51:04.921Z,8
2022-11-28T03:52:07.676Z,7
2022-11-28T03:53:10.319Z,8
2022-11-28T03:54:12.921Z,7
2022-11-28T03:55:15.573Z,7
2022-11-28T03:56:18.423Z,9
2022-11-28T03:57:21.071Z,8
2022-11-28T03:58:23.703Z,8
2022-11-28T03:59:26.347Z,10
2022-11-28T04:00:29.014Z,8
2022-11-28T04:01:32.007Z,8
2022-11-28T04:02:34.901Z,8
2022-11-28T04:03:37.699Z,8
2022-11-28T04:04:40.863Z,8
2022-11-28T04:05:44.556Z,8
2022-11-28T04:06:47.237Z,7
2022-11-28T04:07:50.046Z,8
2022-11-28T04:08:52.904Z,8
2022-11-28T04:09:55.528Z,8
2022-11-28T04:10:58.145Z,8
2022-11-28T04:12:00.983Z,8
2022-11-28T04:13:03.626Z,8
2022-11-28T04:14:06.257Z,8
2022-11-28T04:15:08.897Z,7
2022-11-28T04:16:11.658Z,10
2022-11-28T04:17:14.383Z,7
2022-11-28T04:18:17.012Z,8
2022-11-28T04:19:19.654Z,8
2022-11-28T04:20:22.291Z,8
2022-11-28T04:21:24.909Z,8
2022-11-28T04:22:27.684Z,8
2022-11-28T04:23:30.392Z,7
2022-11-28T04:24:33.038Z,8
2022-11-28T04:25:35.701Z,9
2022-11-28T04:26:38.328Z,10
2022-11-28T04:27:41.236Z,9
2022-11-28T04:28:44.128Z,9
2022-11-28T04:29:46.770Z,11
2022-11-28T04:30:49.449Z,11
2022-11-28T04:31:52.175Z,11
2022-11-28T04:32:54.965Z,11
2022-11-28T04:33:57.628Z,11
2022-11-28T04:35:00.281Z,10
2022-11-28T04:36:02.935Z,10
2022-11-28T04:37:10.105Z,10
2022-11-28T04:38:12.605Z,8
2022-11-28T04:39:15.552Z,9
2022-11-28T04:40:18.162Z,10
2022-11-28T04:41:20.824Z,8
2022-11-28T04:42:23.514Z,10
2022-11-28T04:43:26.359Z,10
2022-11-28T04:44:28.972Z,8
2022-11-28T04:45:31.755Z,8
2022-11-28T04:46:34.511Z,9
2022-11-28T04:47:37.157Z,8
2022-11-28T04:48:40.044Z,10
2022-11-28T04:49:42.866Z,9
2022-11-28T04:50:45.464Z,8
2022-11-28T04:51:48.104Z,8
2022-11-28T04:52:50.744Z,7
2022-11-28T04:53:53.476Z,8
2022-11-28T04:54:56.222Z,9
2022-11-28T04:55:58.844Z,8
2022-11-28T04:57:01.530Z,7
2022-11-28T04:58:04.123Z,8
2022-11-28T04:59:07.020Z,7
2022-11-28T05:00:09.593Z,7
2022-11-28T05:01:12.329Z,7
2022-11-28T05:02:15.222Z,7
2022-11-28T05:03:17.968Z,8
2022-11-28T05:04:20.634Z,7
2022-11-28T05:05:23.290Z,7
2022-11-28T05:06:25.888Z,8
2022-11-28T05:07:28.651Z,7
2022-11-28T05:08:31.435Z,8
2022-11-28T05:09:34.230Z,7
2022-11-28T05:10:37.032Z,7
2022-11-28T05:11:39.666Z,8
2022-11-28T05:12:42.312Z,7
2022-11-28T05:13:45.187Z,7
2022-11-28T05:14:48.051Z,7
2022-11-28T05:15:50.727Z,8
2022-11-28T05:16:53.753Z,14
2022-11-28T05:17:56.742Z,20
2022-11-28T05:18:59.341Z,20
2022-11-28T05:20:02.001Z,19
2022-11-28T05:21:04.656Z,17
2022-11-28T05:22:07.291Z,16
2022-11-28T05:23:09.930Z,16
2022-11-28T05:24:12.811Z,11
2022-11-28T05:25:15.581Z,10
2022-11-28T05:26:18.916Z,11
2022-11-28T05:27:21.527Z,13
2022-11-28T05:28:24.186Z,17
2022-11-28T05:29:26.850Z,16
2022-11-28T05:30:29.697Z,16
2022-11-28T05:31:32.449Z,14
2022-11-28T05:32:35.307Z,13
2022-11-28T05:33:38.546Z,13
2022-11-28T05:34:41.608Z,13
2022-11-28T05:35:45.138Z,11
2022-11-28T05:36:47.791Z,10
2022-11-28T05:37:50.995Z,10
2022-11-28T05:38:53.607Z,11
2022-11-28T05:39:56.236Z,11
2022-11-28T05:40:59.039Z,10
2022-11-28T05:42:01.812Z,14
2022-11-28T05:43:04.450Z,13
2022-11-28T05:44:07.055Z,11
2022-11-28T05:45:09.727Z,10
2022-11-28T05:46:13.280Z,10
2022-11-28T05:47:15.970Z,10
2022-11-28T05:48:18.640Z,10
2022-11-28T05:49:21.288Z,10
2022-11-28T05:50:23.942Z,10
2022-11-28T05:51:26.570Z,10
2022-11-28T05:52:29.243Z,10
2022-11-28T05:53:31.899Z,9
2022-11-28T05:54:34.597Z,10
2022-11-28T05:55:37.688Z,10
2022-11-28T05:56:42.816Z,9
2022-11-28T05:57:45.382Z,10
2022-11-28T05:58:47.966Z,8
2022-11-28T05:59:50.597Z,10
2022-11-28T06:00:53.225Z,10
2022-11-28T06:01:56.203Z,10
2022-11-28T06:03:02.017Z,8
2022-11-28T06:04:04.746Z,8
2022-11-28T06:05:34.972Z,9
2022-11-28T06:06:29.444Z,10
2022-11-28T06:07:32.178Z,9
2022-11-28T06:08:34.940Z,9
2022-11-28T06:09:37.590Z,10
2022-11-28T06:10:40.210Z,8
2022-11-28T06:11:42.894Z,9
2022-11-28T06:12:45.871Z,9
2022-11-28T06:13:48.586Z,8
2022-11-28T06:14:51.231Z,7
2022-11-28T06:15:53.839Z,10
2022-11-28T06:16:57.559Z,10
2022-11-28T06:18:00.527Z,10
2022-11-28T06:19:03.444Z,10
2022-11-28T06:20:07.374Z,11
2022-11-28T06:21:10.232Z,10
2022-11-28T06:22:12.913Z,10
2022-11-28T06:23:15.527Z,9
2022-11-28T06:24:18.212Z,10
2022-11-28T06:25:21.051Z,8
2022-11-28T06:26:23.676Z,7
2022-11-28T06:27:26.336Z,9
2022-11-28T06:28:29.103Z,8
2022-11-28T06:29:31.851Z,8
2022-11-28T06:30:34.471Z,8
2022-11-28T06:31:37.199Z,9
2022-11-28T06:32:39.958Z,10
2022-11-28T06:33:42.879Z,10
2022-11-28T06:34:45.505Z,11
2022-11-28T06:35:48.106Z,11
2022-11-28T06:36:50.773Z,11
2022-11-28T06:37:54.821Z,11
2022-11-28T06:38:57.420Z,13
2022-11-28T06:40:00.144Z,13
2022-11-28T06:41:02.842Z,14
2022-11-28T06:42:05.736Z,14
2022-11-28T06:43:08.353Z,14
2022-11-28T06:44:11.128Z,13
2022-11-28T06:45:14.447Z,14
2022-11-28T06:46:17.370Z,13
2022-11-28T06:47:20.099Z,11
2022-11-28T06:48:22.755Z,11
2022-11-28T06:49:25.640Z,11
2022-11-28T06:50:28.272Z,13
2022-11-28T06:51:30.937Z,13
2022-11-28T06:52:33.583Z,13
2022-11-28T06:53:36.235Z,14
2022-11-28T06:54:38.884Z,14
2022-11-28T06:55:41.514Z,14
2022-11-28T06:56:44.232Z,16
2022-11-28T06:57:46.841Z,20
2022-11-28T06:58:50.082Z,23
2022-11-28T06:59:52.790Z,25
2022-11-28T07:00:55.612Z,24
2022-11-28T07:02:27.100Z,23
2022-11-28T07:03:29.935Z,23
2022-11-28T07:04:32.710Z,20
2022-11-28T07:05:35.265Z,21
2022-11-28T07:06:37.916Z,20
2022-11-28T07:07:53.519Z,21
2022-11-28T07:08:56.840Z,23
2022-11-28T07:09:59.385Z,23
2022-11-28T07:11:02.023Z,22
2022-11-28T07:12:04.660Z,23
2022-11-28T07:13:07.320Z,22
2022-11-28T07:14:09.963Z,22
2022-11-28T07:15:12.935Z,22
2022-11-28T07:16:15.954Z,21
2022-11-28T07:17:18.884Z,19
2022-11-28T07:18:21.537Z,17
2022-11-28T07:19:24.172Z,17
2022-11-28T07:20:27.039Z,17
2022-11-28T07:21:29.704Z,15
2022-11-28T07:22:32.426Z,16
2022-11-28T07:23:35.642Z,14
2022-11-28T07:24:38.277Z,13
2022-11-28T07:25:41.396Z,13
2022-11-28T07:26:44.068Z,14
2022-11-28T07:27:46.681Z,13
2022-11-28T07:28:49.301Z,11
2022-11-28T07:29:51.940Z,13
2022-11-28T07:30:54.692Z,12
2022-11-28T07:31:57.548Z,13
2022-11-28T07:33:00.648Z,13
2022-11-28T07:34:03.854Z,13
2022-11-28T07:35:06.528Z,13
2022-11-28T07:36:09.398Z,14
2022-11-28T07:37:12.008Z,14
2022-11-28T07:38:14.628Z,13
2022-11-28T07:39:17.232Z,13
2022-11-28T07:40:19.831Z,13
2022-11-28T07:41:27.094Z,14
2022-11-28T07:42:29.931Z,14
2022-11-28T07:43:32.552Z,11
2022-11-28T07:44:35.206Z,14
2022-11-28T07:45:59.815Z,16
2022-11-28T07:46:59.924Z,16
2022-11-28T07:48:02.657Z,14
2022-11-28T07:49:05.264Z,16
2022-11-28T07:50:07.884Z,14
2022-11-28T07:51:10.592Z,14
2022-11-28T07:52:13.265Z,15
2022-11-28T07:53:15.904Z,14
2022-11-28T07:54:18.551Z,14
2022-11-28T07:55:21.195Z,19
2022-11-28T07:56:23.843Z,28
2022-11-28T07:57:26.486Z,33
2022-11-28T07:58:29.190Z,30
2022-11-28T07:59:32.125Z,24
2022-11-28T08:00:35.085Z,22
2022-11-28T08:01:37.825Z,19
2022-11-28T08:02:41.058Z,19
2022-11-28T08:03:43.749Z,18
2022-11-28T08:04:55.028Z,17
2022-11-28T08:06:03.148Z,17
2022-11-28T08:07:05.635Z,16
2022-11-28T08:08:08.347Z,17
2022-11-28T08:09:11.057Z,17
2022-11-28T08:10:13.693Z,17
2022-11-28T08:11:16.323Z,19
2022-11-28T08:12:18.936Z,20
2022-11-28T08:13:28.121Z,20
2022-11-28T08:14:30.312Z,20
2022-11-28T08:15:39.499Z,23
2022-11-28T08:16:41.854Z,23
2022-11-28T08:17:44.705Z,21
2022-11-28T08:18:47.332Z,21
2022-11-28T08:19:51.677Z,21
2022-11-28T08:20:54.276Z,20
2022-11-28T08:21:56.917Z,19
2022-11-28T08:22:59.564Z,20
2022-11-28T08:24:02.228Z,19
2022-11-28T08:25:04.913Z,19
2022-11-28T08:26:07.525Z,19
2022-11-28T08:27:10.151Z,17
2022-11-28T08:28:12.813Z,17
2022-11-28T08:29:15.493Z,18
2022-11-28T08:30:18.738Z,19
2022-11-28T08:31:21.419Z,19
2022-11-28T08:32:24.513Z,19
2022-11-28T08:33:27.164Z,19
2022-11-28T08:34:29.817Z,20
2022-11-28T08:35:32.679Z,20
2022-11-28T08:36:35.505Z,20
2022-11-28T08:37:38.402Z,20
2022-11-28T08:38:41.107Z,20
2022-11-28T08:39:44.654Z,18
2022-11-28T08:40:48.563Z,19
2022-11-28T08:41:51.180Z,19
2022-11-28T08:42:53.840Z,20
2022-11-28T08:44:10.988Z,19
2022-11-28T08:45:13.538Z,19
2022-11-28T08:46:16.280Z,19
2022-11-28T08:47:19.176Z,19
2022-11-28T08:48:21.816Z,19
2022-11-28T08:49:24.439Z,20
2022-11-28T08:50:27.097Z,19
2022-11-28T08:51:33.431Z,20
2022-11-28T08:52:35.829Z,20
2022-11-28T08:53:38.448Z,20
2022-11-28T08:54:41.876Z,19
2022-11-28T08:55:45.490Z,19
2022-11-28T08:56:48.352Z,19
2022-11-28T08:57:50.999Z,19
2022-11-28T08:58:53.671Z,20
2022-11-28T08:59:56.312Z,19
2022-11-28T09:00:59.110Z,19
2022-11-28T09:02:06.360Z,18
2022-11-28T09:03:08.650Z,18
2022-11-28T09:04:11.543Z,17
2022-11-28T09:05:14.431Z,17
2022-11-28T09:06:17.184Z,17
2022-11-28T09:07:19.958Z,17
2022-11-28T09:08:24.356Z,17
2022-11-28T09:09:32.940Z,16
2022-11-28T09:10:35.331Z,16
2022-11-28T09:11:37.997Z,16
2022-11-28T09:12:40.641Z,17
2022-11-28T09:13:43.676Z,17
2022-11-28T09:14:46.307Z,16
2022-11-28T09:15:53.698Z,17
2022-11-28T09:16:56.324Z,16
2022-11-28T09:17:59.129Z,17
2022-11-28T09:19:01.792Z,17
2022-11-28T09:20:04.524Z,16
2022-11-28T09:21:07.292Z,14
2022-11-28T09:22:09.979Z,14
2022-11-28T09:23:12.613Z,15
2022-11-28T09:24:15.276Z,16
2022-11-28T09:25:17.936Z,14
2022-11-28T09:26:20.617Z,14
2022-11-28T09:27:23.311Z,13
2022-11-28T09:28:25.947Z,13
2022-11-28T09:29:28.585Z,11
2022-11-28T09:30:31.292Z,13
2022-11-28T09:31:34.408Z,13
2022-11-28T09:32:37.305Z,11
2022-11-28T09:33:39.965Z,11
2022-11-28T09:34:42.594Z,11
2022-11-28T09:35:45.353Z,11
2022-11-28T09:36:48.128Z,11
2022-11-28T09:37:50.832Z,11
2022-11-28T09:38:53.495Z,10
2022-11-28T09:40:15.938Z,11
2022-11-28T09:41:15.787Z,11
2022-11-28T09:42:18.385Z,13
2022-11-28T09:43:21.041Z,14
2022-11-28T09:44:23.708Z,14
2022-11-28T09:45:26.358Z,17
2022-11-28T09:46:33.692Z,17
2022-11-28T09:47:36.092Z,17
2022-11-28T09:48:41.248Z,35
2022-11-28T09:49:44.090Z,36
2022-11-28T09:50:47.506Z,32
2022-11-28T09:51:55.743Z,30
2022-11-28T09:52:58.114Z,29
2022-11-28T09:54:00.962Z,30
2022-11-28T09:55:03.643Z,30
2022-11-28T09:56:06.275Z,27
2022-11-28T09:57:08.926Z,26
2022-11-28T09:58:17.367Z,24
2022-11-28T09:59:19.854Z,21
2022-11-28T10:00:22.521Z,20
2022-11-28T10:01:25.228Z,19
2022-11-28T10:02:28.280Z,19
2022-11-28T10:03:38.059Z,16
2022-11-28T10:04:57.564Z,14
2022-11-28T10:06:00.265Z,14
2022-11-28T10:07:02.881Z,13
2022-11-28T10:08:05.609Z,13
2022-11-28T10:09:08.346Z,13
2022-11-28T10:10:11.184Z,13
2022-11-28T10:11:13.879Z,17
2022-11-28T10:12:16.501Z,17
2022-11-28T10:13:19.359Z,17
2022-11-28T10:14:21.972Z,16
2022-11-28T10:15:27.882Z,17
2022-11-28T10:16:30.780Z,14
2022-11-28T10:17:33.529Z,12
2022-11-28T10:18:36.165Z,10
2022-11-28T10:19:54.139Z,11
2022-11-28T10:20:57.068Z,13
2022-11-28T10:21:59.792Z,13
2022-11-28T10:23:02.609Z,13
2022-11-28T10:24:05.234Z,11
2022-11-28T10:25:07.868Z,13
2022-11-28T10:26:12.026Z,13
2022-11-28T10:27:14.467Z,13
2022-11-28T10:28:17.120Z,13
2022-11-28T10:29:19.800Z,11
2022-11-28T10:30:22.411Z,11
2022-11-28T10:31:25.765Z,11
2022-11-28T10:32:35.182Z,11
2022-11-28T10:33:37.458Z,10
2022-11-28T10:34:40.084Z,11
2022-11-28T10:35:42.720Z,11
2022-11-28T10:36:51.915Z,10
2022-11-28T10:37:54.202Z,10
2022-11-28T10:38:57.080Z,10
2022-11-28T10:39:59.772Z,10
2022-11-28T10:41:02.387Z,8
2022-11-28T10:42:05.058Z,10
2022-11-28T10:43:07.739Z,8
2022-11-28T10:44:10.401Z,8
2022-11-28T10:45:13.075Z,7
2022-11-28T10:46:15.799Z,7
2022-11-28T10:47:19.088Z,7
2022-11-28T10:48:40.793Z,7
2022-11-28T10:49:45.544Z,7
2022-11-28T10:50:48.222Z,7
2022-11-28T10:51:50.872Z,7
2022-11-28T10:52:53.522Z,6
2022-11-28T10:53:56.155Z,7
2022-11-28T10:54:58.836Z,6
2022-11-28T10:56:11.952Z,6
2022-11-28T10:57:14.089Z,6
2022-11-28T10:58:16.702Z,6
2022-11-28T10:59:19.310Z,7
2022-11-28T11:00:22.031Z,5
2022-11-28T11:01:25.022Z,6
2022-11-28T11:02:31.368Z,7
2022-11-28T11:03:34.325Z,6
2022-11-28T11:04:56.172Z,6
2022-11-28T11:06:00.179Z,6
2022-11-28T11:07:11.344Z,7
2022-11-28T11:08:24.687Z,6
2022-11-28T11:09:27.614Z,6
2022-11-28T11:10:30.413Z,7
2022-11-28T11:11:33.294Z,6
2022-11-28T11:12:41.554Z,7
2022-11-28T11:13:43.837Z,7
2022-11-28T11:14:46.465Z,8
2022-11-28T11:15:49.318Z,8
2022-11-28T11:16:56.668Z,8
2022-11-28T11:18:08.556Z,7
2022-11-28T11:19:10.732Z,7
2022-11-28T11:21:41.634Z,6
2022-11-28T11:22:46.285Z,6
2022-11-28T11:23:49.189Z,5
2022-11-28T11:24:51.638Z,6
2022-11-28T11:25:54.417Z,6
2022-11-28T11:26:57.152Z,5
2022-11-28T11:27:59.829Z,4
2022-11-28T11:29:02.467Z,6
2022-11-28T11:30:05.137Z,6
2022-11-28T11:31:07.999Z,7
2022-11-28T11:32:10.781Z,7
2022-11-28T11:33:13.477Z,7
2022-11-28T11:34:21.716Z,7
2022-11-28T11:35:23.895Z,8
2022-11-28T11:36:26.567Z,7
2022-11-28T11:37:30.809Z,7
2022-11-28T11:38:38.349Z,6
2022-11-28T11:39:41.324Z,6
2022-11-28T11:40:44.600Z,6
2022-11-28T11:41:47.250Z,6
2022-11-28T11:42:50.176Z,4
2022-11-28T11:43:53.441Z,5
2022-11-28T11:44:56.088Z,4
2022-11-28T11:45:58.829Z,5
2022-11-28T11:47:01.773Z,4
2022-11-28T11:48:04.396Z,4
2022-11-28T11:49:07.077Z,4
2022-11-28T11:50:10.698Z,4
2022-11-28T11:51:13.409Z,4
2022-11-28T11:52:16.041Z,4
2022-11-28T11:53:18.949Z,4
2022-11-28T11:54:21.594Z,4
2022-11-28T11:55:24.250Z,4
2022-11-28T11:56:32.420Z,4
2022-11-28T11:57:35.251Z,4
2022-11-28T11:58:37.941Z,4
2022-11-28T11:59:41.257Z,4
2022-11-28T12:00:45.017Z,4
2022-11-28T12:01:47.632Z,3
2022-11-28T12:02:51.031Z,3
2022-11-28T12:03:54.231Z,3
2022-11-28T12:04:57.283Z,3
2022-11-28T12:06:17.881Z,3
2022-11-28T12:07:17.573Z,3
2022-11-28T12:08:20.470Z,4
2022-11-28T12:09:24.429Z,4
2022-11-28T12:10:27.257Z,4
2022-11-28T12:11:29.835Z,4
2022-11-28T12:12:33.196Z,4
2022-11-28T12:13:35.728Z,3
2022-11-28T12:14:44.852Z,3
2022-11-28T12:15:47.858Z,3
2022-11-28T12:16:50.759Z,3
2022-11-28T12:17:59.122Z,3
2022-11-28T12:19:07.409Z,3
2022-11-28T12:20:09.643Z,3
2022-11-28T12:21:16.911Z,3
2022-11-28T12:22:20.314Z,3
2022-11-28T12:23:22.929Z,4
2022-11-28T12:24:26.129Z,3
2022-11-28T12:25:28.796Z,3
2022-11-28T12:26:31.490Z,3
2022-11-28T12:27:34.155Z,3
2022-11-28T12:28:36.870Z,2
2022-11-28T12:29:39.579Z,3
2022-11-28T12:30:46.912Z,3
2022-11-28T12:31:51.682Z,2
2022-11-28T12:32:54.393Z,3
2022-11-28T12:33:57.056Z,3
2022-11-28T12:35:05.239Z,3
2022-11-28T12:36:07.590Z,3
2022-11-28T12:37:10.193Z,3
2022-11-28T12:38:12.890Z,3
2022-11-28T12:39:27.152Z,3
2022-11-28T12:40:30.583Z,3
2022-11-28T12:41:35.856Z,3
2022-11-28T12:42:38.466Z,3
2022-11-28T12:43:41.080Z,4
2022-11-28T12:44:49.367Z,3
2022-11-28T12:46:01.183Z,3
2022-11-28T12:47:04.021Z,3
2022-11-28T12:48:07.262Z,4
2022-11-28T12:49:09.981Z,3
2022-11-28T12:50:16.131Z,3
2022-11-28T12:51:18.589Z,3
2022-11-28T12:52:21.206Z,3
2022-11-28T12:53:23.937Z,3
2022-11-28T12:54:26.643Z,3
2022-11-28T12:55:29.730Z,3
2022-11-28T12:56:32.432Z,3
2022-11-28T12:57:35.123Z,3
2022-11-28T12:58:43.351Z,3
2022-11-28T12:59:46.259Z,3
2022-11-28T13:00:50.218Z,3
2022-11-28T13:01:53.099Z,4
2022-11-28T13:02:55.966Z,4
2022-11-28T13:04:04.292Z,6
2022-11-28T13:05:07.230Z,4
2022-11-28T13:06:09.913Z,4
2022-11-28T13:07:12.873Z,4
2022-11-28T13:08:15.835Z,4
2022-11-28T13:09:18.520Z,5
2022-11-28T13:10:21.189Z,6
2022-11-28T13:11:25.432Z,7
2022-11-28T13:12:27.743Z,7
2022-11-28T13:13:30.393Z,7
2022-11-28T13:14:33.088Z,7
2022-11-28T13:15:38.255Z,7
2022-11-28T13:16:41.035Z,6
2022-11-28T13:17:43.864Z,6
2022-11-28T13:18:48.079Z,5
2022-11-28T13:19:50.369Z,6
2022-11-28T13:20:54.263Z,6
2022-11-28T13:21:56.893Z,5
2022-11-28T13:23:01.396Z,5
2022-11-28T13:24:09.247Z,5
2022-11-28T13:25:11.460Z,4
2022-11-28T13:26:19.647Z,3
2022-11-28T13:27:23.359Z,3
2022-11-28T13:28:30.844Z,3
2022-11-28T13:29:39.038Z,4
2022-11-28T13:30:41.268Z,4
2022-11-28T13:31:48.477Z,5
2022-11-28T13:32:51.287Z,4
2022-11-28T13:33:53.918Z,4
2022-11-28T13:34:57.438Z,5
2022-11-28T13:38:34.724Z,4
2022-11-28T13:39:12.223Z,4
2022-11-28T13:40:15.048Z,4
2022-11-28T13:41:53.150Z,4
2022-11-28T13:43:02.795Z,4
2022-11-28T13:44:01.321Z,4
2022-11-28T13:45:03.887Z,4
2022-11-28T13:46:06.670Z,5
2022-11-28T13:47:09.424Z,4
2022-11-28T13:48:12.117Z,4
2022-11-28T13:49:21.245Z,4
2022-11-28T13:50:24.140Z,5
2022-11-28T13:51:32.429Z,4
2022-11-28T13:52:36.080Z,4
2022-11-28T13:53:38.690Z,3
2022-11-28T13:54:41.877Z,3
2022-11-28T13:55:47.373Z,3
2022-11-28T13:56:54.245Z,3
2022-11-28T13:57:56.949Z,3
2022-11-28T13:59:00.130Z,3
2022-11-28T14:00:02.687Z,3
2022-11-28T14:01:05.904Z,3
2022-11-28T14:02:08.833Z,3
2022-11-28T14:03:11.808Z,3
2022-11-28T14:04:14.999Z,3
2022-11-28T14:05:26.340Z,3
2022-11-28T14:06:28.994Z,3
2022-11-28T14:07:33.351Z,3
2022-11-28T14:08:36.375Z,3
2022-11-28T14:09:38.986Z,3
2022-11-28T14:10:41.657Z,3
2022-11-28T14:11:44.427Z,3
2022-11-28T14:12:47.245Z,3
2022-11-28T14:13:49.781Z,3
2022-11-28T14:14:52.663Z,3
2022-11-28T14:16:05.448Z,3
2022-11-28T14:17:10.025Z,4
2022-11-28T14:18:39.571Z,4
2022-11-28T14:19:35.056Z,7
2022-11-28T14:20:46.855Z,5
2022-11-28T14:21:48.836Z,5
2022-11-28T14:22:51.508Z,5
2022-11-28T14:23:54.107Z,6
2022-11-28T14:24:56.812Z,5
2022-11-28T14:26:01.039Z,5
2022-11-28T14:27:03.519Z,4
2022-11-28T14:28:06.224Z,4
2022-11-28T14:29:08.875Z,4
2022-11-28T14:30:11.536Z,5
2022-11-28T14:31:14.293Z,4
2022-11-28T14:32:30.008Z,4
2022-11-28T14:33:34.047Z,4
2022-11-28T14:34:36.727Z,4
2022-11-28T14:35:39.416Z,4
2022-11-28T14:36:42.158Z,4
2022-11-28T14:37:44.874Z,4
2022-11-28T14:38:47.938Z,4
2022-11-28T14:39:56.089Z,4
2022-11-28T14:41:00.004Z,4
2022-11-28T14:42:03.357Z,4
2022-11-28T14:43:06.047Z,4
2022-11-28T14:44:08.908Z,4
2022-11-28T14:45:11.571Z,4
2022-11-28T14:46:20.452Z,4
2022-11-28T14:47:22.853Z,4
2022-11-28T14:48:25.606Z,4
2022-11-28T14:49:28.412Z,3
2022-11-28T14:50:37.037Z,3
2022-11-28T14:51:43.853Z,3
2022-11-28T14:52:47.619Z,3
2022-11-28T14:53:50.228Z,4
2022-11-28T14:54:53.317Z,3
2022-11-28T14:56:10.478Z,3
2022-11-28T14:57:18.908Z,3
2022-11-28T14:58:21.118Z,3
2022-11-28T14:59:24.002Z,4
2022-11-28T15:00:32.101Z,4
2022-11-28T15:01:35.156Z,3
2022-11-28T15:02:43.482Z,4
2022-11-28T15:03:47.710Z,3
2022-11-28T15:04:50.766Z,4
2022-11-28T15:05:53.438Z,5
2022-11-28T15:06:56.168Z,4
2022-11-28T15:07:59.015Z,3
2022-11-28T15:09:07.416Z,4
2022-11-28T15:10:09.838Z,4
2022-11-28T15:11:14.292Z,4
2022-11-28T15:12:18.454Z,4
2022-11-28T15:13:21.878Z,4
2022-11-28T15:14:25.111Z,4
2022-11-28T15:15:33.099Z,4
2022-11-28T15:16:35.606Z,4
2022-11-28T15:17:43.908Z,4
2022-11-28T15:18:51.653Z,4
2022-11-28T15:19:53.937Z,4
2022-11-28T15:21:01.247Z,4
2022-11-28T15:22:03.770Z,5
2022-11-28T15:23:06.848Z,4
2022-11-28T15:24:09.980Z,4
2022-11-28T15:25:12.647Z,5
2022-11-28T15:26:16.822Z,4